Time;durP1;ratioP1;P1;durP2;ratioP2;P2;SDS_P1;SDS_P2;PMS_P1;PMS_P2;Temp;Humidity;BMP_temperature;BMP_pressure;BME280_temperature;BME280_humidity;BME280_pressure;Samples;Min_cycle;Max_cycle;Signal;HPM_P1;HPM_P2
2023/06/29 00:00:23;;;;;;;7.05;6.35;;;;;;;29.93;35.49;101535.53;5046922;27;97131;-79
2023/06/29 00:02:52;;;;;;;6.80;6.10;;;;;;;29.92;35.53;101539.38;5044932;27;97028;-79
2023/06/29 00:05:21;;;;;;;6.82;6.00;;;;;;;29.93;35.52;101535.53;5043740;27;97753;-79
2023/06/29 00:07:48;;;;;;;6.65;5.72;;;;;;;29.91;35.58;101529.38;5038363;27;98180;-79
2023/06/29 00:10:15;;;;;;;6.95;6.25;;;;;;;29.91;35.63;101523.81;5048777;27;96799;-79
2023/06/29 00:12:42;;;;;;;6.85;6.10;;;;;;;29.92;35.54;101521.91;5050986;27;97129;-79
2023/06/29 00:15:09;;;;;;;6.90;6.20;;;;;;;29.91;35.63;101523.81;5046336;27;97292;-80
2023/06/29 00:17:36;;;;;;;6.75;6.05;;;;;;;29.91;35.74;101521.06;5044048;27;97655;-79
2023/06/29 00:20:09;;;;;;;7.45;6.32;;;;;;;29.91;35.57;101520.22;5033262;27;97199;-79
2023/06/29 00:22:36;;;;;;;6.82;5.80;;;;;;;29.91;35.66;101522.97;5049550;27;96776;-79
2023/06/29 00:25:02;;;;;;;6.50;5.88;;;;;;;29.91;35.54;101515.53;5050711;27;97307;-79
2023/06/29 00:27:29;;;;;;;6.68;6.05;;;;;;;29.91;35.41;101511.91;5048460;27;98644;-80
2023/06/29 00:29:56;;;;;;;7.45;6.75;;;;;;;29.91;35.63;101512.75;5036084;27;98423;-79
2023/06/29 00:32:23;;;;;;;6.13;5.53;;;;;;;29.90;35.83;101511.06;5032275;27;96717;-79
2023/06/29 00:34:49;;;;;;;6.80;6.10;;;;;;;29.91;35.74;101509.13;5050345;27;98973;-79
2023/06/29 00:37:16;;;;;;;6.15;5.50;;;;;;;29.90;35.70;101511.06;5045498;27;99468;-79
2023/06/29 00:39:42;;;;;;;6.70;5.68;;;;;;;29.90;35.30;101518.50;5049174;27;96909;-79
2023/06/29 00:42:09;;;;;;;6.88;6.18;;;;;;;29.90;35.58;101518.50;5050198;27;96654;-79
2023/06/29 00:44:36;;;;;;;7.03;6.07;;;;;;;29.90;35.58;101512.97;5050287;27;96776;-79
2023/06/29 00:47:03;;;;;;;6.78;6.10;;;;;;;29.90;35.53;101510.19;5049752;27;99387;-79
2023/06/29 00:49:30;;;;;;;6.75;5.90;;;;;;;29.90;35.61;101510.19;5028275;28;98320;-79
2023/06/29 00:51:57;;;;;;;6.13;5.50;;;;;;;29.90;35.39;101504.66;5029228;27;98081;-79
2023/06/29 00:54:24;;;;;;;6.95;6.25;;;;;;;29.90;35.64;101502.75;5031953;27;99021;-79
2023/06/29 00:56:52;;;;;;;6.93;6.22;;;;;;;29.90;35.58;101501.91;5047970;27;100134;-79
2023/06/29 00:59:19;;;;;;;7.43;6.45;;;;;;;29.89;35.76;101491.88;5030222;27;96974;-79
2023/06/29 01:01:46;;;;;;;6.10;5.50;;;;;;;29.89;35.56;101502.97;5040915;27;96941;-79
2023/06/29 01:04:17;;;;;;;6.68;5.55;;;;;;;29.90;35.89;101496.34;5050229;27;97802;-79
2023/06/29 01:07:16;;;;;;;6.35;5.75;;;;;;;29.89;35.58;101491.88;5049172;27;96987;-79
2023/06/29 01:09:45;;;;;;;7.03;6.32;;;;;;;29.88;35.67;101485.50;5017821;27;96841;-79
2023/06/29 01:12:13;;;;;;;7.22;6.45;;;;;;;29.88;35.78;101487.41;5049528;27;96891;-79
2023/06/29 01:14:42;;;;;;;6.45;5.75;;;;;;;29.88;35.44;101487.41;5049668;27;98156;-79
2023/06/29 01:17:15;;;;;;;6.30;5.70;;;;;;;29.88;35.75;101477.19;5050065;27;96751;-79
2023/06/29 01:19:45;;;;;;;6.65;6.03;;;;;;;29.88;35.79;101485.50;5051224;27;96944;-79
2023/06/29 01:22:21;;;;;;;6.53;5.82;;;;;;;29.88;35.79;101477.19;5051692;27;96844;-79
2023/06/29 01:24:47;;;;;;;6.68;5.95;;;;;;;29.87;35.79;101481.03;5040033;27;99741;-79
2023/06/29 01:27:15;;;;;;;6.80;6.00;;;;;;;29.87;35.74;101481.03;5052552;27;99116;-79
2023/06/29 01:29:42;;;;;;;7.28;6.57;;;;;;;29.87;35.82;101475.50;5053609;27;96918;-79
2023/06/29 01:32:09;;;;;;;6.72;5.53;;;;;;;29.87;35.78;101477.41;5052322;27;97026;-79
2023/06/29 01:34:38;;;;;;;7.00;6.20;;;;;;;29.88;35.55;101476.34;5052241;27;97474;-79
2023/06/29 01:37:20;;;;;;;6.82;5.88;;;;;;;29.88;35.62;101476.34;5052154;27;98586;-79
2023/06/29 01:39:53;;;;;;;6.68;6.00;;;;;;;29.86;35.66;101476.56;5035435;27;97048;-79
2023/06/29 01:42:21;;;;;;;6.22;5.63;;;;;;;29.87;35.81;101474.66;5053377;27;96661;-79
2023/06/29 01:44:48;;;;;;;6.40;5.43;;;;;;;29.86;35.68;101476.56;5052598;27;97091;-79
2023/06/29 01:47:17;;;;;;;6.50;5.70;;;;;;;29.86;35.61;101476.56;5051998;27;99968;-79
2023/06/29 01:49:44;;;;;;;6.47;5.85;;;;;;;29.86;35.82;101472.94;5053535;27;96896;-79
2023/06/29 01:52:11;;;;;;;6.53;5.82;;;;;;;29.86;35.84;101473.78;5021031;27;97030;-79
2023/06/29 01:54:37;;;;;;;6.22;5.63;;;;;;;29.87;35.73;101477.41;5047726;27;99193;-79
2023/06/29 01:57:05;;;;;;;6.55;5.85;;;;;;;29.86;35.79;101467.41;5045473;27;97320;-79
2023/06/29 01:59:31;;;;;;;6.78;6.18;;;;;;;29.86;35.85;101467.41;5056783;27;96737;-79
2023/06/29 02:01:58;;;;;;;6.95;6.25;;;;;;;29.86;35.93;101468.25;5050299;27;96860;-80
2023/06/29 02:04:25;;;;;;;5.93;5.32;;;;;;;29.86;35.87;101462.72;5052878;27;97638;-79
2023/06/29 02:06:51;;;;;;;5.82;5.32;;;;;;;29.86;35.91;101459.09;5052729;27;97442;-79
2023/06/29 02:09:18;;;;;;;6.53;5.82;;;;;;;29.86;35.88;101465.50;5052297;27;96695;-79
2023/06/29 02:11:45;;;;;;;6.18;5.57;;;;;;;29.86;35.56;101461.88;5048200;27;97221;-79
2023/06/29 02:14:11;;;;;;;6.65;6.03;;;;;;;29.86;35.89;101459.09;5045534;27;98307;-79
2023/06/29 02:16:38;;;;;;;6.85;6.05;;;;;;;29.86;35.88;101456.31;5034490;27;100131;-79
2023/06/29 02:19:05;;;;;;;6.38;5.78;;;;;;;29.85;35.61;101451.88;5052239;27;96841;-79
2023/06/29 02:21:32;;;;;;;6.10;5.50;;;;;;;29.86;35.95;101456.31;5039999;27;96930;-79
2023/06/29 02:23:58;;;;;;;6.93;6.15;;;;;;;29.86;35.85;101450.78;5051006;27;100455;-79
2023/06/29 02:26:27;;;;;;;5.43;4.93;;;;;;;29.85;35.83;101454.63;5051457;27;97572;-79
2023/06/29 02:28:55;;;;;;;6.40;5.80;;;;;;;29.85;35.88;101449.09;5040400;27;96622;-79
2023/06/29 02:31:22;;;;;;;6.30;5.65;;;;;;;29.84;35.88;101448.25;5051809;27;97093;-79
2023/06/29 02:33:50;;;;;;;6.43;5.82;;;;;;;29.84;35.86;101448.25;5050193;27;97281;-79
2023/06/29 02:36:20;;;;;;;6.35;5.70;;;;;;;29.85;35.80;101443.56;5035072;27;99603;-79
2023/06/29 02:38:48;;;;;;;6.43;5.63;;;;;;;29.85;35.84;101446.31;5046555;27;97538;-79
2023/06/29 02:41:14;;;;;;;7.20;5.65;;;;;;;29.85;35.84;101438.03;5053031;27;96879;-79
2023/06/29 02:43:42;;;;;;;6.22;5.63;;;;;;;29.85;35.96;101435.25;5051883;27;96872;-79
2023/06/29 02:46:08;;;;;;;6.43;5.82;;;;;;;29.84;35.68;101437.16;5034496;27;98816;-79
2023/06/29 02:48:36;;;;;;;6.07;5.47;;;;;;;29.84;35.66;101428.84;5051162;27;96719;-79
2023/06/29 02:51:05;;;;;;;6.63;5.70;;;;;;;29.84;35.96;101433.56;5035399;27;97036;-79
2023/06/29 02:53:32;;;;;;;6.65;6.05;;;;;;;29.83;35.97;101426.31;5049795;27;99148;-79
2023/06/29 02:55:58;;;;;;;6.57;5.97;;;;;;;29.83;35.85;101429.09;5050031;27;99366;-79
2023/06/29 02:58:26;;;;;;;6.68;6.07;;;;;;;29.83;35.83;101429.94;5052656;27;96604;-80
2023/06/29 03:00:53;;;;;;;6.07;5.40;;;;;;;29.83;35.91;101418.84;5050955;27;96731;-79
2023/06/29 03:03:20;;;;;;;5.82;5.32;;;;;;;29.83;35.90;101421.63;5050264;27;98434;-79
2023/06/29 03:05:47;;;;;;;6.45;5.50;;;;;;;29.83;35.74;101424.38;5050884;27;97044;-79
2023/06/29 03:08:13;;;;;;;6.38;5.78;;;;;;;29.83;35.88;101421.63;5051129;27;96839;-79
2023/06/29 03:10:40;;;;;;;6.20;5.60;;;;;;;29.83;35.80;101421.63;5050873;27;96687;-79
2023/06/29 03:13:06;;;;;;;6.20;5.60;;;;;;;29.83;35.85;101424.38;5050051;27;97394;-79
2023/06/29 03:15:33;;;;;;;6.05;5.43;;;;;;;29.83;35.94;101418.84;5051073;27;97117;-79
2023/06/29 03:17:59;;;;;;;6.80;5.78;;;;;;;29.82;36.00;101417.16;5049977;27;97609;-79
2023/06/29 03:20:26;;;;;;;5.97;5.43;;;;;;;29.82;35.88;101419.94;5049994;27;96886;-79
2023/06/29 03:22:53;;;;;;;6.30;5.43;;;;;;;29.81;35.78;101415.47;5048179;27;98017;-79
2023/06/29 03:25:19;;;;;;;6.28;5.68;;;;;;;29.83;36.08;101423.53;5049361;27;96791;-79
2023/06/29 03:27:46;;;;;;;6.13;5.53;;;;;;;29.82;36.17;101417.16;5051800;27;96740;-79
2023/06/29 03:30:13;;;;;;;6.20;5.60;;;;;;;29.83;35.85;101418.00;5048557;27;96682;-79
2023/06/29 03:32:39;;;;;;;6.00;5.40;;;;;;;29.83;35.80;101420.78;5051689;27;98454;-79
2023/06/29 03:35:07;;;;;;;5.57;5.07;;;;;;;29.83;35.98;101420.78;5047904;27;99174;-80
2023/06/29 03:37:34;;;;;;;6.22;5.63;;;;;;;29.82;35.70;101419.94;5050910;27;96827;-79
2023/06/29 03:40:00;;;;;;;6.47;5.70;;;;;;;29.81;35.96;101412.69;5052533;27;96701;-79
2023/06/29 03:42:27;;;;;;;6.55;5.93;;;;;;;29.81;36.17;101403.53;5049163;27;97649;-79
2023/06/29 03:44:53;;;;;;;5.78;5.20;;;;;;;29.81;35.78;101403.53;5050901;27;97133;-80
2023/06/29 03:47:20;;;;;;;5.88;5.28;;;;;;;29.81;35.96;101406.31;5040033;27;97247;-79
2023/06/29 03:49:47;;;;;;;6.00;5.40;;;;;;;29.80;35.90;101399.91;5050153;27;96793;-79
2023/06/29 03:52:13;;;;;;;6.07;5.47;;;;;;;29.81;35.97;101403.53;5049847;27;97351;-79
2023/06/29 03:54:40;;;;;;;6.43;5.82;;;;;;;29.81;36.04;101403.53;5043990;27;96950;-79
2023/06/29 03:57:07;;;;;;;6.00;5.40;;;;;;;29.80;35.70;101396.31;5048673;27;96820;-79
2023/06/29 03:59:33;;;;;;;6.28;5.40;;;;;;;29.80;35.86;101390.75;5049717;27;96751;-79
2023/06/29 04:02:00;;;;;;;5.70;5.20;;;;;;;29.81;35.87;101392.47;5051196;27;96833;-79
2023/06/29 04:04:26;;;;;;;5.68;5.18;;;;;;;29.79;36.10;101392.69;5051373;27;96742;-79
2023/06/29 04:06:53;;;;;;;6.07;5.47;;;;;;;29.81;35.82;101392.47;5050329;27;96581;-79
2023/06/29 04:09:19;;;;;;;5.63;5.13;;;;;;;29.81;35.95;101392.47;5052068;27;96951;-79
2023/06/29 04:11:46;;;;;;;5.70;5.20;;;;;;;29.80;36.01;101391.63;5051333;27;97699;-79
2023/06/29 04:14:13;;;;;;;6.40;5.80;;;;;;;29.80;36.10;101390.75;5049530;27;96778;-79
2023/06/29 04:16:39;;;;;;;6.07;5.38;;;;;;;29.80;35.93;101390.75;5047438;27;96747;-79
2023/06/29 04:19:06;;;;;;;6.15;5.55;;;;;;;29.80;35.86;101391.63;5052421;27;96710;-80
2023/06/29 04:21:32;;;;;;;6.32;5.72;;;;;;;29.80;36.01;101390.75;5050444;27;96889;-79
2023/06/29 04:23:59;;;;;;;6.18;5.53;;;;;;;29.79;35.79;101387.16;5051756;27;97040;-79
2023/06/29 04:26:29;;;;;;;6.30;5.70;;;;;;;29.78;35.97;101390.97;5041942;27;96723;-79
2023/06/29 04:29:05;;;;;;;6.20;5.60;;;;;;;29.79;35.94;101389.06;5052713;27;96898;-79
2023/06/29 04:31:33;;;;;;;6.15;5.55;;;;;;;29.78;35.91;101381.81;5049420;27;97722;-80
2023/06/29 04:34:02;;;;;;;5.80;5.20;;;;;;;29.78;35.96;101387.38;5026517;27;97308;-79
2023/06/29 04:36:29;;;;;;;6.65;5.53;;;;;;;29.78;36.05;101385.44;5049034;27;96734;-79
2023/06/29 04:38:56;;;;;;;6.15;5.55;;;;;;;29.78;35.91;101381.81;5047826;27;96712;-79
2023/06/29 04:41:30;;;;;;;6.55;5.95;;;;;;;29.79;36.10;101380.75;5051982;27;97081;-79
2023/06/29 04:43:58;;;;;;;;;;;;;;;29.73;36.01;101380.56;5033376;27;99281;-79
2023/06/29 04:46:27;;;;;;;5.60;5.10;;;;;;;29.73;36.23;101379.72;5052734;27;96719;-79
2023/06/29 04:48:54;;;;;;;6.32;5.72;;;;;;;29.74;36.56;101373.13;5051797;27;97264;-80
2023/06/29 04:51:21;;;;;;;6.30;5.70;;;;;;;29.76;36.12;101381.19;5049803;27;96807;-79
2023/06/29 04:53:48;;;;;;;6.03;5.43;;;;;;;29.76;36.22;101373.75;5051302;27;96785;-80
2023/06/29 04:56:14;;;;;;;6.03;5.43;;;;;;;29.76;35.94;101370.97;5051928;27;96761;-79
2023/06/29 04:58:41;;;;;;;6.05;5.45;;;;;;;29.77;36.22;101371.81;5050242;27;98257;-79
2023/06/29 05:01:07;;;;;;;5.85;5.32;;;;;;;29.76;35.97;101368.22;5049511;27;97199;-79
2023/06/29 05:03:34;;;;;;;6.38;5.78;;;;;;;29.77;35.99;101372.69;5050204;27;97446;-80
2023/06/29 05:06:00;;;;;;;6.20;5.60;;;;;;;29.77;36.04;101369.91;5051363;27;96836;-79
2023/06/29 05:08:27;;;;;;;5.50;4.95;;;;;;;29.76;36.04;101370.97;5049158;27;97189;-79
2023/06/29 05:10:54;;;;;;;6.25;5.57;;;;;;;29.77;36.11;101369.06;5029284;27;96897;-79
2023/06/29 05:13:20;;;;;;;5.68;5.07;;;;;;;29.77;36.56;101369.06;5048729;27;96788;-79
2023/06/29 05:15:48;;;;;;;5.45;4.95;;;;;;;29.77;36.10;101369.06;5032601;27;96732;-79
2023/06/29 05:18:15;;;;;;;6.13;5.50;;;;;;;29.77;36.15;101369.06;5047917;27;97210;-79
2023/06/29 05:20:42;;;;;;;6.05;5.45;;;;;;;29.77;36.02;101360.75;5050158;27;97854;-79
2023/06/29 05:23:11;;;;;;;6.07;5.47;;;;;;;29.77;36.20;101360.75;5049132;27;97269;-79
2023/06/29 05:25:39;;;;;;;5.97;5.38;;;;;;;29.76;36.04;101364.59;5050116;27;97374;-79
2023/06/29 05:28:06;;;;;;;6.68;5.38;;;;;;;29.76;35.98;101361.81;5032271;27;96853;-80
2023/06/29 05:30:34;;;;;;;6.72;5.85;;;;;;;29.76;35.99;101362.66;5049899;27;96859;-79
2023/06/29 05:33:01;;;;;;;5.43;4.93;;;;;;;29.77;36.27;101369.06;5049191;27;97011;-79
2023/06/29 05:35:27;;;;;;;5.90;5.35;;;;;;;29.76;36.03;101359.91;5049190;27;98532;-79
2023/06/29 05:37:54;;;;;;;6.10;5.50;;;;;;;29.77;35.99;101363.53;5045502;27;96685;-79
2023/06/29 05:40:21;;;;;;;5.75;5.25;;;;;;;29.77;36.31;101366.28;5049777;27;97516;-79
2023/06/29 05:42:47;;;;;;;6.28;5.68;;;;;;;29.77;36.19;101369.06;5050146;27;96760;-79
2023/06/29 05:45:14;;;;;;;5.82;5.28;;;;;;;29.76;36.00;101361.81;5049934;27;97090;-79
2023/06/29 05:47:41;;;;;;;6.18;5.57;;;;;;;29.77;36.11;101355.22;5050156;27;97310;-78
2023/06/29 05:50:07;;;;;;;6.40;5.72;;;;;;;29.76;36.14;101361.81;5049844;27;98486;-79
2023/06/29 05:52:34;;;;;;;5.82;5.32;;;;;;;29.75;36.04;101358.22;5048721;27;96765;-79
2023/06/29 05:55:02;;;;;;;5.70;5.20;;;;;;;29.77;36.09;101355.22;5048570;27;99070;-78
2023/06/29 05:57:29;;;;;;;5.70;5.10;;;;;;;29.76;36.15;101354.38;5032027;27;96908;-78
2023/06/29 06:00:06;;;;;;;6.07;5.47;;;;;;;29.77;36.21;101357.97;5041875;27;97245;-78
2023/06/29 06:02:36;;;;;;;5.60;5.07;;;;;;;29.76;36.15;101359.06;5041700;27;96872;-79
2023/06/29 06:05:03;;;;;;;6.00;5.40;;;;;;;29.75;36.18;101351.81;5040174;27;96767;-78
2023/06/29 06:07:30;;;;;;;5.75;5.15;;;;;;;29.76;36.26;101359.91;5042613;27;97113;-78
2023/06/29 06:09:58;;;;;;;5.90;5.30;;;;;;;29.75;36.10;101349.91;5034062;27;97380;-79
2023/06/29 06:12:25;;;;;;;5.80;5.25;;;;;;;29.76;36.01;101353.53;5048530;27;97872;-78
2023/06/29 06:14:52;;;;;;;6.18;5.57;;;;;;;29.75;36.01;101355.44;5044152;27;97834;-78
2023/06/29 06:17:18;;;;;;;6.15;5.63;;;;;;;29.75;36.23;101351.81;5032540;27;97115;-78
2023/06/29 06:19:45;;;;;;;6.97;5.03;;;;;;;29.76;36.35;101356.28;5046011;27;98130;-79
2023/06/29 06:22:11;;;;;;;5.82;5.25;;;;;;;29.76;36.04;101347.97;5047109;27;98112;-78
2023/06/29 06:24:38;;;;;;;6.05;5.45;;;;;;;29.76;36.14;101353.53;5042262;27;97077;-78
2023/06/29 06:27:05;;;;;;;6.00;5.40;;;;;;;29.76;36.25;101356.28;5045374;27;97031;-78
2023/06/29 06:29:31;;;;;;;5.95;5.40;;;;;;;29.75;36.38;101363.75;5026381;27;100881;-78
2023/06/29 06:31:58;;;;;;;6.57;5.97;;;;;;;29.76;36.25;101356.28;5049041;27;99609;-78
2023/06/29 06:34:24;;;;;;;6.10;5.50;;;;;;;29.76;36.28;101361.81;5047734;27;96988;-78
2023/06/29 06:36:51;;;;;;;5.80;5.28;;;;;;;29.76;36.39;101359.06;5042014;27;96846;-78
2023/06/29 06:39:18;;;;;;;6.75;6.10;;;;;;;29.76;36.37;101359.06;5042245;27;97170;-78
2023/06/29 06:41:45;;;;;;;6.78;6.07;;;;;;;29.76;36.17;101359.06;5047207;27;97823;-78
2023/06/29 06:44:14;;;;;;;7.28;6.57;;;;;;;29.76;36.35;101353.53;5034876;27;96745;-78
2023/06/29 06:46:40;;;;;;;6.15;5.55;;;;;;;29.76;36.38;101356.28;5050877;27;97196;-78
2023/06/29 06:49:07;;;;;;;6.68;5.97;;;;;;;29.75;36.18;101349.91;5045447;27;97959;-78
2023/06/29 06:51:34;;;;;;;6.63;6.03;;;;;;;29.76;36.48;101361.81;5038716;27;96847;-78
2023/06/29 06:54:00;;;;;;;7.40;6.70;;;;;;;29.76;36.56;101347.97;5039458;27;97025;-78
2023/06/29 06:56:27;;;;;;;6.78;6.15;;;;;;;29.76;36.53;101356.28;5046320;27;96764;-78
2023/06/29 06:58:55;;;;;;;7.40;6.70;;;;;;;29.76;36.42;101356.28;5049436;27;97506;-78
2023/06/29 07:01:22;;;;;;;7.05;6.38;;;;;;;29.76;36.65;101350.75;5031631;27;98307;-79
2023/06/29 07:03:49;;;;;;;7.38;6.68;;;;;;;29.76;36.51;101347.97;5045782;27;96583;-78
2023/06/29 07:06:15;;;;;;;7.63;6.93;;;;;;;29.76;36.39;101354.38;5032286;27;97344;-78
2023/06/29 07:08:42;;;;;;;7.40;6.70;;;;;;;29.76;36.45;101356.28;5027880;27;98663;-78
2023/06/29 07:11:09;;;;;;;6.97;6.38;;;;;;;29.75;36.35;101344.38;5044216;27;97579;-78
2023/06/29 07:13:35;;;;;;;7.07;6.38;;;;;;;29.75;36.63;101349.91;5041555;27;96754;-78
2023/06/29 07:16:02;;;;;;;7.32;6.63;;;;;;;29.76;36.50;101354.38;5048445;27;96665;-78
2023/06/29 07:18:30;;;;;;;7.72;7.03;;;;;;;29.76;36.43;101347.97;5050613;27;97851;-78
2023/06/29 07:20:56;;;;;;;7.43;6.68;;;;;;;29.76;36.55;101347.97;5045889;27;96875;-79
2023/06/29 07:23:26;;;;;;;8.55;7.65;;;;;;;29.76;36.57;101353.53;5049373;27;96825;-78
2023/06/29 07:25:55;;;;;;;7.78;6.97;;;;;;;29.76;36.83;101356.28;5045072;27;97519;-79
2023/06/29 07:28:22;;;;;;;7.95;7.15;;;;;;;29.76;36.65;101353.53;5044290;27;97557;-78
2023/06/29 07:30:50;;;;;;;10.23;8.25;;;;;;;29.75;36.60;101346.28;5045220;27;97603;-78
2023/06/29 07:33:17;;;;;;;8.68;7.88;;;;;;;29.75;36.67;101347.13;5041796;27;96697;-78
2023/06/29 07:35:43;;;;;;;8.60;7.45;;;;;;;29.76;36.83;101354.38;5048128;27;96735;-79
2023/06/29 07:38:10;;;;;;;8.32;7.38;;;;;;;29.76;36.74;101347.97;5048990;27;97934;-78
2023/06/29 07:40:37;;;;;;;8.48;7.57;;;;;;;29.76;36.63;101346.06;5048818;27;97269;-78
2023/06/29 07:43:04;;;;;;;9.52;8.10;;;;;;;29.76;36.91;101347.97;5045447;27;96730;-78
2023/06/29 07:45:30;;;;;;;9.43;7.75;;;;;;;29.76;36.67;101343.28;5049307;27;96964;-78
2023/06/29 07:47:57;;;;;;;8.50;7.60;;;;;;;29.75;36.85;101336.06;5052643;27;96797;-78
2023/06/29 07:50:24;;;;;;;9.43;8.52;;;;;;;29.76;36.95;101337.75;5052021;27;96987;-78
2023/06/29 07:52:50;;;;;;;8.30;7.50;;;;;;;29.76;37.06;101332.22;5040738;27;97161;-78
2023/06/29 07:55:17;;;;;;;9.43;8.05;;;;;;;29.76;37.01;101340.53;5039851;27;96893;-78
2023/06/29 07:57:43;;;;;;;8.82;7.93;;;;;;;29.76;37.04;101325.81;5043214;27;98021;-78
2023/06/29 08:00:13;;;;;;;9.25;8.10;;;;;;;29.76;37.06;101336.91;5033032;27;97255;-78
2023/06/29 08:02:46;;;;;;;10.32;8.57;;;;;;;29.76;37.18;101323.06;5033875;27;96946;-78
2023/06/29 08:05:13;;;;;;;9.65;8.70;;;;;;;29.76;37.16;101325.81;5035008;27;97185;-78
2023/06/29 08:07:43;;;;;;;10.05;8.93;;;;;;;29.77;36.79;101324.75;5046466;27;96846;-78
2023/06/29 08:10:32;;;;;;;9.63;8.50;;;;;;;29.77;37.38;101324.75;5044111;27;97529;-78
2023/06/29 08:13:09;;;;;;;11.15;8.35;;;;;;;29.77;37.08;101327.53;5055328;27;96763;-80
2023/06/29 08:15:36;;;;;;;10.63;9.13;;;;;;;29.76;37.38;101325.81;5030332;27;96871;-78
2023/06/29 08:18:03;;;;;;;10.10;9.02;;;;;;;29.76;37.08;101326.69;5038916;27;98295;-78
2023/06/29 08:20:30;;;;;;;10.10;9.05;;;;;;;29.77;37.14;101319.22;5037070;27;97327;-78
2023/06/29 08:22:57;;;;;;;10.38;9.05;;;;;;;29.76;37.22;101318.38;5045182;27;97638;-78
2023/06/29 08:25:24;;;;;;;10.70;8.77;;;;;;;29.77;37.04;101320.06;5044432;27;96672;-78
2023/06/29 08:27:51;;;;;;;10.63;8.55;;;;;;;29.77;37.17;101322.00;5051059;27;97707;-80
2023/06/29 08:30:17;;;;;;;9.38;8.30;;;;;;;29.77;36.78;101328.38;5051622;27;96738;-79
2023/06/29 08:32:47;;;;;;;10.45;9.10;;;;;;;29.77;37.02;101319.22;5051270;27;96811;-79
2023/06/29 08:35:15;;;;;;;11.52;8.88;;;;;;;29.78;37.29;101319.00;5041633;27;96678;-77
2023/06/29 08:37:41;;;;;;;10.23;9.23;;;;;;;29.79;37.16;101328.16;5047827;27;97693;-79
2023/06/29 08:40:10;;;;;;;10.23;8.80;;;;;;;29.79;37.21;101320.69;5036471;27;97855;-77
2023/06/29 08:42:38;;;;;;;10.88;8.80;;;;;;;29.78;37.13;101316.22;5042864;27;97258;-77
2023/06/29 08:45:06;;;;;;;10.52;8.45;;;;;;;29.80;37.08;101313.22;5028608;27;96669;-78
2023/06/29 08:47:36;;;;;;;11.00;9.20;;;;;;;29.79;37.26;101317.06;5045637;27;97308;-80
2023/06/29 08:50:05;;;;;;;9.57;8.35;;;;;;;29.79;37.12;101312.38;5039838;27;96779;-81
2023/06/29 08:52:33;;;;;;;11.88;8.77;;;;;;;29.80;37.18;101307.69;5034095;27;96752;-78
2023/06/29 08:55:02;;;;;;;11.90;9.60;;;;;;;29.79;37.28;101315.16;5033211;27;97066;-78
2023/06/29 08:57:31;;;;;;;9.75;8.65;;;;;;;29.79;37.37;101320.69;5044844;27;97800;-78
2023/06/29 09:00:02;;;;;;;10.75;9.27;;;;;;;29.80;37.05;101316.00;5034377;27;99202;-77
2023/06/29 09:02:30;;;;;;;11.35;9.13;;;;;;;29.79;37.26;101320.69;5042495;27;96670;-78
2023/06/29 09:04:58;;;;;;;11.65;9.45;;;;;;;29.80;37.16;101313.22;5035013;27;96725;-77
2023/06/29 09:07:25;;;;;;;12.32;9.48;;;;;;;29.80;37.44;101313.22;5032321;27;96805;-78
2023/06/29 09:09:53;;;;;;;10.43;9.25;;;;;;;29.80;37.38;101311.31;5034337;27;96720;-77
2023/06/29 09:12:30;;;;;;;10.10;9.05;;;;;;;29.80;37.28;101318.78;5043971;27;96742;-78
2023/06/29 09:14:59;;;;;;;12.00;9.70;;;;;;;29.80;37.09;101308.53;5030371;27;96826;-79
2023/06/29 09:17:33;;;;;;;10.57;9.48;;;;;;;29.80;37.37;101311.31;5034616;27;96693;-78
2023/06/29 09:20:18;;;;;;;10.63;9.52;;;;;;;29.80;37.25;101307.69;5017783;28;97120;-79
2023/06/29 09:22:52;;;;;;;10.70;9.32;;;;;;;29.80;37.32;101307.69;5027780;27;99251;-78
2023/06/29 09:25:27;;;;;;;11.60;9.48;;;;;;;29.79;37.26;101304.06;5015897;28;97380;-79
2023/06/29 09:28:05;;;;;;;10.60;9.50;;;;;;;29.80;37.22;101305.78;5035121;27;98200;-78
2023/06/29 09:30:37;;;;;;;11.32;9.20;;;;;;;29.79;37.51;101303.22;5034698;27;97959;-78
2023/06/29 09:33:09;;;;;;;12.40;9.38;;;;;;;29.82;37.51;101300.00;5048334;27;97130;-78
2023/06/29 09:35:43;;;;;;;11.20;10.10;;;;;;;29.82;37.56;101308.31;5046815;27;96715;-78
2023/06/29 09:38:10;;;;;;;12.27;10.13;;;;;;;29.81;37.35;101301.09;5052191;27;98085;-78
2023/06/29 09:40:51;;;;;;;11.35;9.63;;;;;;;29.82;37.33;101302.78;5039518;27;97972;-78
2023/06/29 09:43:20;;;;;;;12.50;9.60;;;;;;;29.80;37.28;101305.78;5052911;27;97027;-79
2023/06/29 09:45:48;;;;;;;12.07;9.90;;;;;;;29.81;37.43;101303.84;5035794;27;97423;-78
2023/06/29 09:48:14;;;;;;;11.40;10.02;;;;;;;29.80;37.48;101307.69;5025750;27;100195;-78
2023/06/29 09:50:49;;;;;;;11.75;9.50;;;;;;;29.81;37.39;101306.63;5051828;27;97025;-78
2023/06/29 09:53:17;;;;;;;11.65;10.43;;;;;;;29.80;37.38;101303.00;5052211;27;96888;-78
2023/06/29 09:55:46;;;;;;;11.88;10.52;;;;;;;29.82;37.34;101302.78;5053642;27;97005;-78
2023/06/29 09:58:14;;;;;;;14.20;10.90;;;;;;;29.81;37.61;101301.94;5038426;27;96882;-79
2023/06/29 10:00:41;;;;;;;12.68;11.02;;;;;;;29.80;37.45;101300.25;5033913;27;97373;-78
2023/06/29 10:03:08;;;;;;;11.93;10.27;;;;;;;29.81;37.48;101306.63;5048457;27;97178;-78
2023/06/29 10:05:37;;;;;;;11.93;10.20;;;;;;;29.82;37.43;101302.78;5051056;27;97434;-78
2023/06/29 10:08:08;;;;;;;11.75;9.98;;;;;;;29.83;37.45;101310.00;5048884;27;97895;-78
2023/06/29 10:10:36;;;;;;;12.00;10.57;;;;;;;29.82;37.29;101300.00;5053869;27;96707;-78
2023/06/29 10:13:06;;;;;;;13.90;11.10;;;;;;;29.81;37.34;101303.84;5047477;27;96771;-78
2023/06/29 10:15:35;;;;;;;11.95;10.50;;;;;;;29.82;37.28;101305.56;5051158;27;96744;-78
2023/06/29 10:18:11;;;;;;;12.70;10.95;;;;;;;29.82;37.22;101305.56;5042883;27;97417;-78
2023/06/29 10:20:41;;;;;;;12.23;10.93;;;;;;;29.81;37.23;101298.31;5039922;27;98035;-78
2023/06/29 10:23:10;;;;;;;14.63;11.13;;;;;;;29.81;37.27;101309.41;5047862;27;97104;-79
2023/06/29 10:25:41;;;;;;;13.27;11.15;;;;;;;29.82;36.98;101308.31;5041366;27;96652;-78
2023/06/29 10:28:09;;;;;;;11.50;10.32;;;;;;;29.81;37.25;101304.69;5040603;27;96872;-77
2023/06/29 10:30:46;;;;;;;12.02;10.73;;;;;;;29.83;37.27;101301.72;5040282;27;96829;-78
2023/06/29 10:33:21;;;;;;;12.40;11.10;;;;;;;29.81;37.57;101299.16;5040029;27;96671;-78
2023/06/29 10:35:58;;;;;;;13.52;11.43;;;;;;;29.82;37.34;101308.31;5033906;27;96716;-78
2023/06/29 10:38:32;;;;;;;12.77;10.85;;;;;;;29.81;37.00;101307.47;5052537;27;97663;-78
2023/06/29 10:40:59;;;;;;;12.80;11.38;;;;;;;29.81;37.40;101306.63;5035007;27;96711;-79
2023/06/29 10:43:27;;;;;;;13.02;11.15;;;;;;;29.81;37.28;101306.63;5045200;27;96951;-78
2023/06/29 10:45:54;;;;;;;14.20;10.95;;;;;;;29.81;37.17;101306.63;5035458;27;97192;-78
2023/06/29 10:48:20;;;;;;;13.95;11.38;;;;;;;29.81;36.76;101303.84;5032249;27;100109;-79
2023/06/29 10:51:08;;;;;;;11.32;10.05;;;;;;;29.81;37.28;101303.84;5041622;27;97441;-78
2023/06/29 10:53:35;;;;;;;13.57;11.32;;;;;;;29.81;37.10;101304.69;5033916;27;97421;-78
2023/06/29 10:56:02;;;;;;;14.05;11.23;;;;;;;29.81;37.16;101299.16;5052575;27;97453;-78
2023/06/29 10:58:37;;;;;;;13.35;11.75;;;;;;;29.82;36.86;101297.25;5050185;27;97530;-78
2023/06/29 11:01:04;;;;;;;12.93;11.25;;;;;;;29.81;37.05;101292.78;5052127;27;97834;-78
2023/06/29 11:03:32;;;;;;;14.18;11.15;;;;;;;29.82;37.13;101291.72;5051002;27;97013;-78
2023/06/29 11:06:01;;;;;;;12.35;11.00;;;;;;;29.82;37.06;101297.25;5016094;27;96941;-78
2023/06/29 11:08:30;;;;;;;11.98;10.65;;;;;;;29.83;37.16;101293.41;5036187;27;97930;-78
2023/06/29 11:11:12;;;;;;;13.77;11.40;;;;;;;29.82;36.79;101286.16;5037068;27;97303;-78
2023/06/29 11:13:38;;;;;;;14.38;11.13;;;;;;;29.82;36.96;101288.94;5014168;27;98333;-78
2023/06/29 11:16:05;;;;;;;12.07;10.85;;;;;;;29.82;36.85;101294.47;5039117;27;96900;-78
2023/06/29 11:18:32;;;;;;;13.98;11.88;;;;;;;29.81;36.93;101290.84;5044005;27;98718;-79
2023/06/29 11:21:02;;;;;;;13.55;11.30;;;;;;;29.83;36.88;101296.16;5041474;27;98821;-78
2023/06/29 11:23:28;;;;;;;14.38;11.23;;;;;;;29.81;36.91;101290.84;5050521;27;96857;-78
2023/06/29 11:25:59;;;;;;;12.82;11.02;;;;;;;29.83;36.85;101293.41;5038433;27;96937;-77